createdAt,value
2023-05-21T00:01:20.387Z,6.97
2023-05-21T00:04:23.402Z,7.80
2023-05-21T00:07:26.437Z,7.35
2023-05-21T00:10:29.537Z,7.60
2023-05-21T00:13:32.538Z,7.73
2023-05-21T00:16:35.676Z,7.97
2023-05-21T00:19:39.953Z,8.20
2023-05-21T00:22:43.842Z,7.85
2023-05-21T00:25:46.945Z,7.90
2023-05-21T00:28:50.252Z,7.63
2023-05-21T00:31:53.400Z,6.97
2023-05-21T00:34:56.434Z,8.18
2023-05-21T00:37:59.873Z,7.63
2023-05-21T00:41:03.216Z,8.10
2023-05-21T00:44:06.757Z,7.80
2023-05-21T00:47:09.797Z,7.90
2023-05-21T00:50:15.187Z,7.45
2023-05-21T00:53:19.512Z,7.85
2023-05-21T00:56:23.606Z,7.43
2023-05-21T00:59:26.592Z,7.57
2023-05-21T01:02:29.662Z,6.80
2023-05-21T01:05:32.860Z,7.47
2023-05-21T01:08:37.680Z,7.30
2023-05-21T01:11:51.063Z,7.03
2023-05-21T01:14:54.053Z,6.87
2023-05-21T01:17:57.384Z,7.38
2023-05-21T01:21:01.733Z,7.20
2023-05-21T01:24:05.671Z,7.32
2023-05-21T01:27:10.477Z,7.20
2023-05-21T01:30:13.796Z,7.80
2023-05-21T01:33:50.589Z,7.03
2023-05-21T01:36:59.931Z,7.07
2023-05-21T01:40:46.938Z,6.63
2023-05-21T01:43:50.540Z,6.70
2023-05-21T01:46:54.418Z,7.30
2023-05-21T01:49:57.464Z,7.75
2023-05-21T01:53:05.924Z,7.00
2023-05-21T01:56:08.923Z,8.52
2023-05-21T01:59:11.930Z,7.85
2023-05-21T02:02:15.084Z,7.23
2023-05-21T02:05:18.293Z,7.72
2023-05-21T02:08:23.365Z,7.05
2023-05-21T02:11:26.872Z,7.20
2023-05-21T02:14:29.934Z,7.50
2023-05-21T02:17:34.075Z,7.60
2023-05-21T02:20:37.588Z,6.38
2023-05-21T02:23:41.793Z,7.13
2023-05-21T02:26:44.826Z,7.10
2023-05-21T02:29:47.848Z,6.88
2023-05-21T02:32:50.950Z,6.67
2023-05-21T02:35:54.116Z,6.80
2023-05-21T02:38:57.810Z,6.53
2023-05-21T02:42:00.790Z,7.13
2023-05-21T02:45:03.935Z,7.78
2023-05-21T02:48:07.098Z,7.83
2023-05-21T02:51:15.202Z,7.70
2023-05-21T02:54:18.207Z,7.85
2023-05-21T02:57:21.292Z,7.28
2023-05-21T03:00:24.319Z,7.45
2023-05-21T03:03:27.539Z,6.83
2023-05-21T03:06:32.269Z,7.22
2023-05-21T03:09:35.269Z,7.60
2023-05-21T03:12:38.282Z,7.20
2023-05-21T03:15:41.307Z,7.70
2023-05-21T03:18:45.220Z,7.37
2023-05-21T03:21:49.210Z,7.07
2023-05-21T03:24:53.516Z,7.70
2023-05-21T03:27:56.987Z,7.45
2023-05-21T03:31:18.978Z,6.97
2023-05-21T03:34:27.232Z,7.10
2023-05-21T03:37:30.261Z,7.45
2023-05-21T03:40:33.286Z,7.47
2023-05-21T03:43:36.858Z,6.45
2023-05-21T03:46:40.674Z,7.03
2023-05-21T03:49:47.356Z,7.27
2023-05-21T03:52:50.453Z,6.63
2023-05-21T03:55:55.515Z,7.70
2023-05-21T03:59:00.278Z,6.60
2023-05-21T04:02:03.456Z,6.88
2023-05-21T04:05:07.164Z,6.57
2023-05-21T04:08:10.321Z,6.40
2023-05-21T04:11:13.308Z,6.57
2023-05-21T04:14:16.541Z,6.05
2023-05-21T04:17:21.192Z,6.43
2023-05-21T04:20:24.330Z,6.73
2023-05-21T04:23:27.780Z,6.60
2023-05-21T04:26:35.489Z,6.97
2023-05-21T04:29:42.898Z,6.68
2023-05-21T04:32:48.285Z,7.68
2023-05-21T04:35:51.645Z,7.70
2023-05-21T04:38:55.000Z,7.00
2023-05-21T04:41:57.986Z,6.93
2023-05-21T04:45:02.159Z,6.63
2023-05-21T04:48:07.826Z,5.10
2023-05-21T04:51:10.926Z,4.67
2023-05-21T04:54:13.918Z,4.78
2023-05-21T04:57:18.433Z,5.15
2023-05-21T05:00:21.641Z,4.88
2023-05-21T05:03:25.640Z,5.10
2023-05-21T05:06:28.711Z,4.87
2023-05-21T05:09:31.780Z,4.55
2023-05-21T05:12:34.889Z,5.00
2023-05-21T05:15:38.223Z,5.18
2023-05-21T05:18:41.679Z,5.20
2023-05-21T05:21:44.824Z,5.20
2023-05-21T05:24:48.084Z,4.93
2023-05-21T05:27:51.187Z,5.25
2023-05-21T05:30:54.268Z,5.05
2023-05-21T05:34:00.360Z,4.97
2023-05-21T05:37:04.978Z,4.73
2023-05-21T05:40:09.278Z,5.20
2023-05-21T05:43:12.298Z,5.15
2023-05-21T05:46:15.579Z,4.70
2023-05-21T05:49:18.680Z,5.28
2023-05-21T05:52:21.822Z,4.90
2023-05-21T05:55:26.821Z,5.00
2023-05-21T05:58:31.310Z,5.75
2023-05-21T06:02:01.504Z,4.70
2023-05-21T06:05:06.889Z,4.95
2023-05-21T06:08:10.542Z,5.00
2023-05-21T06:11:17.123Z,5.55
2023-05-21T06:14:20.445Z,5.45
2023-05-21T06:17:24.729Z,4.97
2023-05-21T06:20:30.029Z,4.70
2023-05-21T06:23:35.516Z,5.23
2023-05-21T06:26:38.676Z,5.43
2023-05-21T06:29:42.136Z,5.50
2023-05-21T06:32:45.288Z,5.22
2023-05-21T06:35:48.384Z,5.40
2023-05-21T06:38:51.507Z,4.87
2023-05-21T06:41:54.670Z,5.10
2023-05-21T06:45:17.213Z,4.97
2023-05-21T06:48:21.482Z,5.45
2023-05-21T06:51:24.760Z,4.60
2023-05-21T06:54:27.790Z,5.40
2023-05-21T06:57:31.397Z,4.97
2023-05-21T07:00:34.413Z,5.43
2023-05-21T07:03:37.517Z,5.35
2023-05-21T07:06:40.936Z,5.43
2023-05-21T07:09:44.567Z,4.87
2023-05-21T07:12:47.644Z,5.00
2023-05-21T07:15:52.240Z,5.07
2023-05-21T07:18:55.481Z,5.22
2023-05-21T07:21:58.695Z,5.07
2023-05-21T07:25:01.788Z,5.43
2023-05-21T07:28:06.624Z,5.00
2023-05-21T07:31:14.194Z,4.80
2023-05-21T07:34:22.917Z,5.50
2023-05-21T07:37:27.818Z,5.30
2023-05-21T07:40:31.508Z,4.83
2023-05-21T07:43:34.659Z,4.90
2023-05-21T07:46:37.810Z,4.80
2023-05-21T07:49:40.941Z,5.30
2023-05-21T07:52:44.095Z,4.85
2023-05-21T07:55:48.201Z,4.73
2023-05-21T07:58:54.700Z,5.63
2023-05-21T08:01:57.793Z,5.45
2023-05-21T08:05:01.861Z,5.28
2023-05-21T08:08:05.747Z,4.95
2023-05-21T08:11:10.137Z,4.63
2023-05-21T08:14:13.737Z,5.05
2023-05-21T08:17:17.263Z,5.20
2023-05-21T08:20:20.617Z,5.03
2023-05-21T08:23:24.147Z,4.93
2023-05-21T08:26:31.180Z,5.90
2023-05-21T08:29:35.195Z,5.10
2023-05-21T08:32:39.446Z,5.45
2023-05-21T08:35:42.606Z,5.15
2023-05-21T08:39:05.274Z,5.32
2023-05-21T08:42:35.182Z,5.00
2023-05-21T08:45:41.573Z,5.20
2023-05-21T08:48:45.278Z,5.38
2023-05-21T08:51:48.499Z,5.75
2023-05-21T08:54:52.477Z,5.07
2023-05-21T08:57:55.697Z,5.20
2023-05-21T09:01:00.828Z,5.20
2023-05-21T09:04:19.805Z,4.90
2023-05-21T09:07:29.176Z,4.78
2023-05-21T09:10:54.591Z,5.45
2023-05-21T09:14:02.013Z,5.00
2023-05-21T09:17:15.535Z,5.22
2023-05-21T09:20:24.696Z,4.88
2023-05-21T09:23:31.948Z,5.07
2023-05-21T09:26:34.981Z,5.03
2023-05-21T09:29:42.947Z,4.90
2023-05-21T09:32:46.647Z,5.47
2023-05-21T09:35:50.091Z,5.50
2023-05-21T09:38:53.165Z,4.97
2023-05-21T09:41:59.641Z,5.38
2023-05-21T09:45:04.750Z,5.50
2023-05-21T09:48:08.374Z,4.95
2023-05-21T09:51:14.913Z,5.18
2023-05-21T09:54:17.953Z,5.07
2023-05-21T09:57:25.236Z,4.90
2023-05-21T10:00:31.396Z,5.20
2023-05-21T10:03:34.373Z,5.40
2023-05-21T10:06:42.280Z,5.20
2023-05-21T10:09:49.281Z,5.03
2023-05-21T10:12:59.523Z,5.40
2023-05-21T10:16:03.464Z,5.10
2023-05-21T10:19:10.909Z,5.40
2023-05-21T10:22:14.427Z,5.30
2023-05-21T10:25:17.485Z,5.38
2023-05-21T10:28:20.663Z,5.30
2023-05-21T10:31:24.072Z,5.43
2023-05-21T10:34:27.062Z,4.78
2023-05-21T10:37:30.256Z,4.95
2023-05-21T10:40:33.285Z,5.03
2023-05-21T10:43:44.622Z,5.30
2023-05-21T10:47:07.063Z,5.43
2023-05-21T10:50:37.282Z,6.07
2023-05-21T10:53:46.432Z,5.90
2023-05-21T10:56:55.360Z,5.53
2023-05-21T10:59:58.438Z,5.68
2023-05-21T11:03:01.868Z,5.40
2023-05-21T11:06:08.625Z,6.07
2023-05-21T11:09:15.001Z,5.45
2023-05-21T11:12:18.127Z,5.90
2023-05-21T11:15:21.198Z,5.87
2023-05-21T11:18:39.907Z,5.60
2023-05-21T11:21:42.962Z,6.25
2023-05-21T11:24:46.077Z,6.25
2023-05-21T11:27:49.090Z,5.67
2023-05-21T11:31:27.058Z,6.43
2023-05-21T11:34:40.655Z,6.05
2023-05-21T11:37:46.148Z,6.10
2023-05-21T11:40:55.594Z,5.72
2023-05-21T11:44:02.177Z,4.60
2023-05-21T11:47:06.125Z,6.93
2023-05-21T11:50:13.527Z,5.90
2023-05-21T11:53:16.683Z,6.10
2023-05-21T11:56:20.474Z,7.20
2023-05-21T11:59:23.448Z,6.77
2023-05-21T12:02:28.643Z,7.03
2023-05-21T12:05:31.798Z,6.68
2023-05-21T12:08:35.947Z,6.43
2023-05-21T12:11:42.069Z,7.18
2023-05-21T12:14:51.689Z,6.80
2023-05-21T12:17:55.440Z,7.00
2023-05-21T12:20:58.523Z,6.30
2023-05-21T12:24:01.744Z,6.60
2023-05-21T12:27:13.416Z,6.85
2023-05-21T12:30:16.579Z,7.40
2023-05-21T12:33:19.722Z,6.95
2023-05-21T12:36:23.795Z,6.80
2023-05-21T12:39:26.777Z,7.20
2023-05-21T12:42:30.896Z,7.00
2023-05-21T12:45:34.048Z,6.82
2023-05-21T12:48:37.111Z,5.70
2023-05-21T12:51:40.761Z,6.90
2023-05-21T12:54:45.954Z,7.28
2023-05-21T12:57:49.009Z,6.70
2023-05-21T13:00:54.962Z,6.17
2023-05-21T13:03:57.983Z,5.80
2023-05-21T13:07:02.859Z,5.13
2023-05-21T13:10:07.867Z,5.30
2023-05-21T13:13:10.847Z,5.40
2023-05-21T13:16:13.877Z,6.07
2023-05-21T13:19:16.992Z,5.82
2023-05-21T13:22:19.981Z,5.25
2023-05-21T13:25:29.552Z,5.70
2023-05-21T13:28:32.625Z,5.73
2023-05-21T13:31:35.844Z,6.15
2023-05-21T13:34:38.811Z,5.25
2023-05-21T13:37:42.101Z,5.78
2023-05-21T13:40:45.116Z,6.10
2023-05-21T13:43:48.110Z,6.20
2023-05-21T13:46:51.244Z,5.10
2023-05-21T13:49:54.240Z,5.18
2023-05-21T13:52:57.243Z,5.90
2023-05-21T13:56:00.549Z,5.60
2023-05-21T13:59:03.607Z,5.30
2023-05-21T14:02:07.149Z,5.60
2023-05-21T14:05:10.912Z,5.57
2023-05-21T14:08:13.912Z,6.25
2023-05-21T14:11:17.809Z,5.37
2023-05-21T14:14:21.674Z,5.87
2023-05-21T14:17:24.731Z,5.80
2023-05-21T14:20:27.820Z,5.60
2023-05-21T14:23:30.840Z,5.82
2023-05-21T14:26:33.897Z,5.60
2023-05-21T14:29:36.909Z,5.63
2023-05-21T14:32:39.962Z,5.47
2023-05-21T14:35:44.350Z,5.45
2023-05-21T14:38:47.596Z,5.18
2023-05-21T14:41:50.642Z,5.20
2023-05-21T14:44:53.639Z,6.10
2023-05-21T14:47:56.912Z,5.47
2023-05-21T14:51:00.044Z,5.32
2023-05-21T14:54:03.058Z,5.13
2023-05-21T14:57:06.179Z,5.70
2023-05-21T15:00:09.665Z,4.87
2023-05-21T15:03:12.968Z,5.90
2023-05-21T15:06:16.164Z,5.28
2023-05-21T15:09:19.279Z,5.57
2023-05-21T15:12:22.351Z,5.70
2023-05-21T15:15:25.521Z,5.60
2023-05-21T15:18:29.714Z,5.63
2023-05-21T15:21:32.769Z,5.32
2023-05-21T15:24:36.103Z,5.60
2023-05-21T15:27:39.101Z,5.57
2023-05-21T15:30:42.137Z,5.60
2023-05-21T15:33:45.121Z,5.55
2023-05-21T15:36:48.128Z,5.30
2023-05-21T15:39:51.152Z,6.10
2023-05-21T15:42:54.284Z,5.40
2023-05-21T15:45:57.343Z,5.80
2023-05-21T15:49:00.412Z,5.85
2023-05-21T15:52:03.524Z,5.22
2023-05-21T15:55:06.782Z,5.70
2023-05-21T15:58:09.777Z,5.50
2023-05-21T16:01:12.836Z,5.57
2023-05-21T16:04:17.093Z,5.15
2023-05-21T16:07:20.193Z,5.57
2023-05-21T16:10:23.258Z,5.05
2023-05-21T16:13:26.548Z,5.03
2023-05-21T16:16:29.594Z,5.20
2023-05-21T16:19:32.731Z,5.20
2023-05-21T16:22:35.867Z,5.70
2023-05-21T16:25:39.085Z,5.13
2023-05-21T16:28:42.274Z,5.47
2023-05-21T16:31:45.338Z,6.20
2023-05-21T16:34:48.401Z,6.40
2023-05-21T16:37:51.374Z,5.43
2023-05-21T16:40:54.384Z,5.38
2023-05-21T16:43:57.380Z,5.73
2023-05-21T16:47:01.990Z,5.13
2023-05-21T16:50:05.421Z,5.45
2023-05-21T16:53:09.880Z,5.25
2023-05-21T16:56:12.890Z,5.50
2023-05-21T16:59:16.061Z,5.23
2023-05-21T17:02:19.142Z,5.40
2023-05-21T17:05:22.767Z,5.50
2023-05-21T17:08:25.737Z,5.45
2023-05-21T17:11:28.825Z,5.97
2023-05-21T17:14:34.631Z,5.23
2023-05-21T17:17:38.419Z,5.20
2023-05-21T17:20:43.698Z,5.40
2023-05-21T17:23:46.844Z,5.90
2023-05-21T17:26:49.812Z,5.20
2023-05-21T17:29:52.881Z,5.63
2023-05-21T17:32:56.046Z,5.50
2023-05-21T17:35:59.132Z,5.20
2023-05-21T17:39:02.155Z,5.50
2023-05-21T17:42:05.420Z,5.82
2023-05-21T17:45:08.769Z,5.73
2023-05-21T17:48:12.233Z,4.80
2023-05-21T17:51:15.872Z,5.63
2023-05-21T17:54:19.780Z,5.50
2023-05-21T17:57:22.855Z,5.85
2023-05-21T18:00:26.026Z,5.63
2023-05-21T18:03:29.055Z,5.60
2023-05-21T18:06:32.834Z,6.05
2023-05-21T18:09:35.816Z,5.90
2023-05-21T18:12:38.880Z,5.82
2023-05-21T18:15:41.953Z,5.50
2023-05-21T18:18:45.034Z,6.10
2023-05-21T18:21:49.443Z,5.80
2023-05-21T18:24:52.404Z,6.13
2023-05-21T18:27:55.433Z,6.22
2023-05-21T18:31:01.029Z,7.13
2023-05-21T18:34:04.044Z,6.67
2023-05-21T18:37:07.037Z,6.78
2023-05-21T18:40:11.033Z,5.65
2023-05-21T18:43:14.278Z,6.47
2023-05-21T18:46:17.441Z,7.13
2023-05-21T18:49:21.360Z,6.87
2023-05-21T18:52:24.348Z,7.22
2023-05-21T18:55:28.543Z,6.57
2023-05-21T18:58:33.105Z,6.53
2023-05-21T19:01:36.189Z,6.00
2023-05-21T19:04:39.234Z,6.57
2023-05-21T19:07:42.295Z,6.28
2023-05-21T19:13:48.684Z,6.47
2023-05-21T19:16:51.677Z,6.80
2023-05-21T19:19:57.746Z,6.70
2023-05-21T19:23:01.410Z,6.35
2023-05-21T19:26:04.509Z,7.20
2023-05-21T19:29:09.528Z,7.70
2023-05-21T19:32:12.822Z,6.43
2023-05-21T19:35:16.568Z,6.87
2023-05-21T19:38:19.540Z,6.90
2023-05-21T19:41:22.707Z,6.47
2023-05-21T19:44:26.270Z,6.78
2023-05-21T19:47:30.869Z,6.80
2023-05-21T19:50:34.089Z,6.87
2023-05-21T19:53:37.177Z,6.55
2023-05-21T19:56:40.194Z,7.68
2023-05-21T19:59:43.224Z,7.07
2023-05-21T20:02:46.621Z,6.80
2023-05-21T20:05:49.620Z,7.57
2023-05-21T20:08:52.615Z,8.15
2023-05-21T20:11:55.579Z,7.55
2023-05-21T20:14:59.731Z,8.10
2023-05-21T20:18:02.858Z,7.80
2023-05-21T20:21:06.681Z,8.10
2023-05-21T20:24:11.434Z,8.15
2023-05-21T20:27:19.435Z,8.50
2023-05-21T20:30:22.527Z,8.18
2023-05-21T20:33:27.277Z,8.27
2023-05-21T20:36:33.814Z,9.10
2023-05-21T20:39:37.326Z,8.55
2023-05-21T20:42:41.741Z,8.30
2023-05-21T20:45:49.364Z,8.55
2023-05-21T20:48:53.027Z,7.63
2023-05-21T20:51:56.057Z,8.13
2023-05-21T20:55:00.486Z,8.07
2023-05-21T20:58:04.323Z,7.75
2023-05-21T21:01:07.689Z,8.30
2023-05-21T21:04:11.410Z,8.20
2023-05-21T21:07:15.560Z,8.37
2023-05-21T21:10:18.887Z,7.88
2023-05-21T21:13:21.882Z,7.53
2023-05-21T21:16:24.944Z,7.07
2023-05-21T21:19:28.132Z,7.87
2023-05-21T21:22:31.644Z,7.53
2023-05-21T21:25:34.667Z,7.97
2023-05-21T21:28:37.845Z,7.57
2023-05-21T21:31:41.117Z,6.93
2023-05-21T21:34:44.298Z,6.90
2023-05-21T21:37:47.292Z,6.77
2023-05-21T21:40:50.345Z,6.93
2023-05-21T21:43:53.415Z,7.25
2023-05-21T21:46:56.437Z,7.38
2023-05-21T21:49:59.435Z,7.10
2023-05-21T21:53:03.680Z,6.57
2023-05-21T21:56:06.793Z,7.18
2023-05-21T21:59:09.856Z,7.07
2023-05-21T22:02:12.964Z,6.88
2023-05-21T22:05:16.488Z,7.10
2023-05-21T22:08:19.799Z,7.07
2023-05-21T22:11:22.928Z,6.88
2023-05-21T22:14:25.982Z,7.18
2023-05-21T22:17:29.232Z,6.97
2023-05-21T22:20:33.230Z,6.63
2023-05-21T22:23:37.179Z,6.80
2023-05-21T22:26:40.363Z,6.60
2023-05-21T22:29:43.382Z,6.40
2023-05-21T22:32:47.296Z,6.50
2023-05-21T22:35:50.502Z,5.07
2023-05-21T22:38:53.597Z,4.90
2023-05-21T22:41:56.578Z,5.20
2023-05-21T22:44:59.724Z,4.82
2023-05-21T22:48:06.987Z,4.78
2023-05-21T22:51:11.408Z,4.80
2023-05-21T22:54:14.475Z,5.10
2023-05-21T22:57:17.461Z,5.15
2023-05-21T23:00:20.557Z,6.13
2023-05-21T23:03:23.600Z,6.28
2023-05-21T23:06:26.627Z,6.47
2023-05-21T23:09:29.696Z,6.13
2023-05-21T23:12:32.805Z,5.60
2023-05-21T23:15:38.811Z,5.22
2023-05-21T23:18:42.136Z,4.55
2023-05-21T23:21:45.105Z,5.23
2023-05-21T23:24:48.384Z,5.47
2023-05-21T23:27:51.426Z,5.20
2023-05-21T23:30:54.440Z,5.43
2023-05-21T23:33:57.447Z,5.10
2023-05-21T23:37:00.793Z,5.37
2023-05-21T23:40:04.061Z,4.77
2023-05-21T23:43:07.064Z,4.80
2023-05-21T23:46:10.861Z,5.10
2023-05-21T23:49:13.955Z,4.93
2023-05-21T23:52:18.297Z,4.97
2023-05-21T23:55:21.351Z,4.67
2023-05-21T23:58:24.397Z,5.00
